sensor_id;sensor_type;location;lat;lon;timestamp;pressure;altitude;pressure_sealevel;temperature;humidity
67803;BME280;54601;51.378;-1.342;2022-09-17T00:02:23;100925.43;;;20.13;29.67
67803;BME280;54601;51.378;-1.342;2022-09-17T00:04:49;100929.79;;;20.21;29.40
67803;BME280;54601;51.378;-1.342;2022-09-17T00:07:14;100931.86;;;20.20;29.54
67803;BME280;54601;51.378;-1.342;2022-09-17T00:09:41;100928.91;;;20.27;29.31
67803;BME280;54601;51.378;-1.342;2022-09-17T00:12:06;100919.94;;;20.09;29.29
67803;BME280;54601;51.378;-1.342;2022-09-17T00:14:32;100923.61;;;20.20;29.31
67803;BME280;54601;51.378;-1.342;2022-09-17T00:16:58;100923.68;;;19.71;29.68
67803;BME280;54601;51.378;-1.342;2022-09-17T00:19:25;100924.42;;;20.06;29.60
67803;BME280;54601;51.378;-1.342;2022-09-17T00:21:50;100923.96;;;19.88;29.69
67803;BME280;54601;51.378;-1.342;2022-09-17T00:24:17;100927.07;;;19.86;29.94
67803;BME280;54601;51.378;-1.342;2022-09-17T00:26:43;100927.11;;;19.96;29.65
67803;BME280;54601;51.378;-1.342;2022-09-17T00:29:09;100925.67;;;20.03;29.48
67803;BME280;54601;51.378;-1.342;2022-09-17T00:31:35;100927.31;;;20.06;29.37
67803;BME280;54601;51.378;-1.342;2022-09-17T00:34:02;100929.95;;;20.04;29.34
67803;BME280;54601;51.378;-1.342;2022-09-17T00:36:27;100933.35;;;20.09;29.30
67803;BME280;54601;51.378;-1.342;2022-09-17T00:38:53;100925.43;;;19.76;29.91
67803;BME280;54601;51.378;-1.342;2022-09-17T00:41:19;100922.39;;;19.69;30.01
67803;BME280;54601;51.378;-1.342;2022-09-17T00:43:46;100923.08;;;20.08;29.28
67803;BME280;54601;51.378;-1.342;2022-09-17T00:46:21;100921.96;;;19.53;29.78
67803;BME280;54601;51.378;-1.342;2022-09-17T00:48:36;100920.43;;;20.12;29.14
67803;BME280;54601;51.378;-1.342;2022-09-17T00:51:05;100922.66;;;19.65;29.43
67803;BME280;54601;51.378;-1.342;2022-09-17T00:53:29;100920.87;;;19.68;29.85
67803;BME280;54601;51.378;-1.342;2022-09-17T00:55:58;100923.50;;;19.79;29.76
67803;BME280;54601;51.378;-1.342;2022-09-17T00:58:21;100923.84;;;20.10;29.16
67803;BME280;54601;51.378;-1.342;2022-09-17T01:00:46;100923.01;;;19.91;29.34
67803;BME280;54601;51.378;-1.342;2022-09-17T01:03:12;100918.86;;;19.88;29.43
67803;BME280;54601;51.378;-1.342;2022-09-17T01:05:43;100914.40;;;19.83;29.40
67803;BME280;54601;51.378;-1.342;2022-09-17T01:08:09;100913.53;;;19.66;29.78
67803;BME280;54601;51.378;-1.342;2022-09-17T01:10:43;100917.47;;;19.84;29.39
67803;BME280;54601;51.378;-1.342;2022-09-17T01:13:07;100919.94;;;19.84;29.31
67803;BME280;54601;51.378;-1.342;2022-09-17T01:15:28;100919.77;;;20.19;29.24
67803;BME280;54601;51.378;-1.342;2022-09-17T01:17:59;100922.99;;;19.96;29.24
67803;BME280;54601;51.378;-1.342;2022-09-17T01:20:33;100928.10;;;19.71;29.56
67803;BME280;54601;51.378;-1.342;2022-09-17T01:22:51;100931.52;;;19.78;29.41
67803;BME280;54601;51.378;-1.342;2022-09-17T01:25:19;100940.73;;;19.75;29.37
67803;BME280;54601;51.378;-1.342;2022-09-17T01:30:13;100937.63;;;19.74;29.35
67803;BME280;54601;51.378;-1.342;2022-09-17T01:32:29;100938.54;;;19.76;29.33
67803;BME280;54601;51.378;-1.342;2022-09-17T01:34:55;100942.69;;;19.57;29.22
67803;BME280;54601;51.378;-1.342;2022-09-17T01:37:19;100941.96;;;19.80;29.22
67803;BME280;54601;51.378;-1.342;2022-09-17T01:39:45;100941.46;;;19.77;29.26
67803;BME280;54601;51.378;-1.342;2022-09-17T01:42:15;100944.37;;;19.74;29.32
67803;BME280;54601;51.378;-1.342;2022-09-17T01:44:36;100947.26;;;19.62;29.28
67803;BME280;54601;51.378;-1.342;2022-09-17T01:47:02;100940.67;;;19.72;29.23
67803;BME280;54601;51.378;-1.342;2022-09-17T01:49:24;100939.32;;;19.67;29.31
67803;BME280;54601;51.378;-1.342;2022-09-17T01:51:48;100941.96;;;19.64;29.31
67803;BME280;54601;51.378;-1.342;2022-09-17T01:54:16;100946.59;;;19.72;29.25
67803;BME280;54601;51.378;-1.342;2022-09-17T01:56:40;100948.67;;;19.48;29.44
67803;BME280;54601;51.378;-1.342;2022-09-17T01:59:08;100944.70;;;19.40;29.56
67803;BME280;54601;51.378;-1.342;2022-09-17T02:01:29;100940.84;;;19.52;29.37
67803;BME280;54601;51.378;-1.342;2022-09-17T02:03:58;100940.94;;;19.48;29.71
67803;BME280;54601;51.378;-1.342;2022-09-17T02:06:21;100943.51;;;19.76;29.40
67803;BME280;54601;51.378;-1.342;2022-09-17T02:08:46;100948.71;;;19.50;29.34
67803;BME280;54601;51.378;-1.342;2022-09-17T02:11:09;100950.90;;;19.55;29.52
67803;BME280;54601;51.378;-1.342;2022-09-17T02:13:37;100944.92;;;19.35;29.51
67803;BME280;54601;51.378;-1.342;2022-09-17T02:16:03;100941.55;;;19.71;29.36
67803;BME280;54601;51.378;-1.342;2022-09-17T02:18:27;100944.23;;;19.43;29.39
67803;BME280;54601;51.378;-1.342;2022-09-17T02:20:53;100948.72;;;19.15;29.64
67803;BME280;54601;51.378;-1.342;2022-09-17T02:23:15;100948.28;;;19.27;29.51
67803;BME280;54601;51.378;-1.342;2022-09-17T02:25:43;100949.45;;;19.55;29.48
67803;BME280;54601;51.378;-1.342;2022-09-17T02:28:07;100949.30;;;19.29;29.48
67803;BME280;54601;51.378;-1.342;2022-09-17T02:30:28;100946.95;;;19.55;29.50
67803;BME280;54601;51.378;-1.342;2022-09-17T02:32:53;100946.91;;;19.36;29.44
67803;BME280;54601;51.378;-1.342;2022-09-17T02:35:18;100950.21;;;19.16;29.59
67803;BME280;54601;51.378;-1.342;2022-09-17T02:37:43;100950.96;;;19.10;29.62
67803;BME280;54601;51.378;-1.342;2022-09-17T02:40:09;100947.96;;;19.30;29.70
67803;BME280;54601;51.378;-1.342;2022-09-17T02:42:42;100944.00;;;19.01;29.75
67803;BME280;54601;51.378;-1.342;2022-09-17T02:45:05;100946.35;;;19.11;29.55
67803;BME280;54601;51.378;-1.342;2022-09-17T02:47:37;100949.20;;;19.06;29.59
67803;BME280;54601;51.378;-1.342;2022-09-17T02:50:01;100947.56;;;19.37;29.77
67803;BME280;54601;51.378;-1.342;2022-09-17T02:52:20;100945.69;;;19.53;29.62
67803;BME280;54601;51.378;-1.342;2022-09-17T02:54:44;100947.06;;;19.34;29.81
67803;BME280;54601;51.378;-1.342;2022-09-17T02:57:09;100950.24;;;18.96;29.70
67803;BME280;54601;51.378;-1.342;2022-09-17T02:59:31;100948.77;;;19.00;29.72
67803;BME280;54601;51.378;-1.342;2022-09-17T03:01:57;100951.88;;;18.93;29.72
67803;BME280;54601;51.378;-1.342;2022-09-17T03:04:20;100948.85;;;19.17;29.81
67803;BME280;54601;51.378;-1.342;2022-09-17T03:06:45;100945.30;;;19.16;29.72
67803;BME280;54601;51.378;-1.342;2022-09-17T03:09:09;100946.70;;;18.89;29.73
67803;BME280;54601;51.378;-1.342;2022-09-17T03:11:34;100946.00;;;19.09;29.73
67803;BME280;54601;51.378;-1.342;2022-09-17T03:13:59;100945.98;;;19.03;29.57
67803;BME280;54601;51.378;-1.342;2022-09-17T03:16:24;100939.67;;;18.96;29.62
67803;BME280;54601;51.378;-1.342;2022-09-17T03:18:49;100939.28;;;18.84;29.75
67803;BME280;54601;51.378;-1.342;2022-09-17T03:21:14;100943.79;;;19.07;29.44
67803;BME280;54601;51.378;-1.342;2022-09-17T03:23:39;100947.02;;;19.03;29.55
67803;BME280;54601;51.378;-1.342;2022-09-17T03:26:04;100944.78;;;19.64;29.40
67803;BME280;54601;51.378;-1.342;2022-09-17T03:28:29;100942.30;;;19.15;29.57
67803;BME280;54601;51.378;-1.342;2022-09-17T03:30:54;100942.66;;;19.30;29.70
67803;BME280;54601;51.378;-1.342;2022-09-17T03:33:19;100945.51;;;19.02;29.80
67803;BME280;54601;51.378;-1.342;2022-09-17T03:35:45;100947.11;;;19.35;29.68
67803;BME280;54601;51.378;-1.342;2022-09-17T03:38:10;100949.96;;;19.13;29.68
67803;BME280;54601;51.378;-1.342;2022-09-17T03:40:35;100944.72;;;19.16;29.58
67803;BME280;54601;51.378;-1.342;2022-09-17T03:43:00;100942.06;;;19.23;29.74
67803;BME280;54601;51.378;-1.342;2022-09-17T03:45:25;100943.53;;;19.07;29.65
67803;BME280;54601;51.378;-1.342;2022-09-17T03:47:50;100945.84;;;19.23;29.71
67803;BME280;54601;51.378;-1.342;2022-09-17T03:50:15;100947.50;;;18.98;29.73
67803;BME280;54601;51.378;-1.342;2022-09-17T03:52:42;100947.09;;;18.99;29.99
67803;BME280;54601;51.378;-1.342;2022-09-17T03:55:06;100948.60;;;19.04;30.03
67803;BME280;54601;51.378;-1.342;2022-09-17T03:57:30;100949.62;;;19.15;29.89
67803;BME280;54601;51.378;-1.342;2022-09-17T03:59:56;100950.69;;;19.00;29.91
67803;BME280;54601;51.378;-1.342;2022-09-17T04:02:21;100950.69;;;18.67;30.24
67803;BME280;54601;51.378;-1.342;2022-09-17T04:04:46;100953.94;;;18.81;29.86
67803;BME280;54601;51.378;-1.342;2022-09-17T04:07:11;100952.44;;;18.68;30.07
67803;BME280;54601;51.378;-1.342;2022-09-17T04:09:36;100953.01;;;18.73;29.98
67803;BME280;54601;51.378;-1.342;2022-09-17T04:12:02;100954.01;;;18.81;30.09
67803;BME280;54601;51.378;-1.342;2022-09-17T04:14:26;100953.19;;;18.73;30.24
67803;BME280;54601;51.378;-1.342;2022-09-17T04:16:51;100950.88;;;18.62;30.05
67803;BME280;54601;51.378;-1.342;2022-09-17T04:19:16;100947.73;;;18.59;30.02
67803;BME280;54601;51.378;-1.342;2022-09-17T04:21:42;100949.67;;;18.83;29.99
67803;BME280;54601;51.378;-1.342;2022-09-17T04:24:07;100948.32;;;18.81;29.98
67803;BME280;54601;51.378;-1.342;2022-09-17T04:26:32;100949.13;;;18.61;30.24
67803;BME280;54601;51.378;-1.342;2022-09-17T04:28:57;100946.81;;;18.68;30.14
67803;BME280;54601;51.378;-1.342;2022-09-17T04:31:22;100942.93;;;18.65;30.16
67803;BME280;54601;51.378;-1.342;2022-09-17T04:33:47;100943.45;;;18.68;30.06
67803;BME280;54601;51.378;-1.342;2022-09-17T04:36:12;100942.01;;;18.45;30.08
67803;BME280;54601;51.378;-1.342;2022-09-17T04:38:37;100938.76;;;18.54;30.27
67803;BME280;54601;51.378;-1.342;2022-09-17T04:41:06;100938.00;;;18.63;30.20
67803;BME280;54601;51.378;-1.342;2022-09-17T04:43:28;100937.61;;;18.29;30.29
67803;BME280;54601;51.378;-1.342;2022-09-17T04:45:53;100940.06;;;18.67;30.03
67803;BME280;54601;51.378;-1.342;2022-09-17T04:48:18;100935.53;;;18.69;30.06
67803;BME280;54601;51.378;-1.342;2022-09-17T04:50:43;100936.31;;;18.55;30.12
67803;BME280;54601;51.378;-1.342;2022-09-17T04:53:09;100931.41;;;18.55;30.14
67803;BME280;54601;51.378;-1.342;2022-09-17T04:55:34;100932.22;;;18.26;30.16
67803;BME280;54601;51.378;-1.342;2022-09-17T04:57:59;100931.55;;;18.49;30.16
67803;BME280;54601;51.378;-1.342;2022-09-17T05:00:24;100927.87;;;18.90;29.98
67803;BME280;54601;51.378;-1.342;2022-09-17T05:02:50;100928.13;;;18.35;30.32
67803;BME280;54601;51.378;-1.342;2022-09-17T05:05:15;100921.62;;;18.62;30.01
67803;BME280;54601;51.378;-1.342;2022-09-17T05:07:40;100918.66;;;18.29;30.31
67803;BME280;54601;51.378;-1.342;2022-09-17T05:10:06;100923.76;;;18.47;30.20
67803;BME280;54601;51.378;-1.342;2022-09-17T05:12:29;100923.00;;;18.28;30.34
67803;BME280;54601;51.378;-1.342;2022-09-17T05:14:55;100925.36;;;18.05;30.57
67803;BME280;54601;51.378;-1.342;2022-09-17T05:17:20;100925.83;;;18.27;30.10
67803;BME280;54601;51.378;-1.342;2022-09-17T05:19:45;100927.81;;;18.57;29.98
67803;BME280;54601;51.378;-1.342;2022-09-17T05:22:10;100926.86;;;18.36;30.19
67803;BME280;54601;51.378;-1.342;2022-09-17T05:24:35;100927.40;;;18.34;30.26
67803;BME280;54601;51.378;-1.342;2022-09-17T05:27:00;100933.12;;;18.36;30.22
67803;BME280;54601;51.378;-1.342;2022-09-17T05:29:25;100936.97;;;18.37;30.23
67803;BME280;54601;51.378;-1.342;2022-09-17T05:31:51;100942.10;;;18.56;30.19
67803;BME280;54601;51.378;-1.342;2022-09-17T05:34:16;100946.27;;;18.31;30.45
67803;BME280;54601;51.378;-1.342;2022-09-17T05:36:41;100949.72;;;18.42;30.22
67803;BME280;54601;51.378;-1.342;2022-09-17T05:39:06;100942.82;;;18.12;30.41
67803;BME280;54601;51.378;-1.342;2022-09-17T05:41:33;100941.67;;;18.15;30.36
67803;BME280;54601;51.378;-1.342;2022-09-17T05:43:56;100936.47;;;18.12;30.35
67803;BME280;54601;51.378;-1.342;2022-09-17T05:46:22;100936.23;;;18.19;30.36
67803;BME280;54601;51.378;-1.342;2022-09-17T05:48:47;100942.23;;;18.04;30.47
67803;BME280;54601;51.378;-1.342;2022-09-17T05:51:12;100942.02;;;18.10;30.47
67803;BME280;54601;51.378;-1.342;2022-09-17T05:53:37;100950.05;;;18.24;30.27
67803;BME280;54601;51.378;-1.342;2022-09-17T05:56:02;100951.54;;;18.16;30.35
67803;BME280;54601;51.378;-1.342;2022-09-17T05:58:27;100953.06;;;18.11;30.43
67803;BME280;54601;51.378;-1.342;2022-09-17T06:00:52;100952.90;;;18.19;30.33
67803;BME280;54601;51.378;-1.342;2022-09-17T06:03:19;100957.95;;;18.26;30.20
67803;BME280;54601;51.378;-1.342;2022-09-17T06:05:43;100958.58;;;18.22;30.31
67803;BME280;54601;51.378;-1.342;2022-09-17T06:08:08;100952.62;;;17.90;30.58
67803;BME280;54601;51.378;-1.342;2022-09-17T06:10:35;100958.04;;;17.76;30.77
67803;BME280;54601;51.378;-1.342;2022-09-17T06:12:58;100957.14;;;17.93;30.56
67803;BME280;54601;51.378;-1.342;2022-09-17T06:15:24;100960.57;;;18.28;30.34
67803;BME280;54601;51.378;-1.342;2022-09-17T06:17:48;100952.24;;;18.44;30.30
67803;BME280;54601;51.378;-1.342;2022-09-17T06:20:14;100950.21;;;18.09;30.36
67803;BME280;54601;51.378;-1.342;2022-09-17T06:22:39;100956.67;;;17.86;30.58
67803;BME280;54601;51.378;-1.342;2022-09-17T06:25:05;100956.83;;;17.79;30.90
67803;BME280;54601;51.378;-1.342;2022-09-17T06:27:30;100955.94;;;18.09;30.29
67803;BME280;54601;51.378;-1.342;2022-09-17T06:29:54;100962.93;;;18.12;30.49
67803;BME280;54601;51.378;-1.342;2022-09-17T06:32:19;100966.07;;;18.09;30.33
67803;BME280;54601;51.378;-1.342;2022-09-17T06:34:44;100955.23;;;17.97;30.51
67803;BME280;54601;51.378;-1.342;2022-09-17T06:37:09;100956.00;;;17.94;30.45
67803;BME280;54601;51.378;-1.342;2022-09-17T06:39:35;100960.82;;;18.30;30.32
67803;BME280;54601;51.378;-1.342;2022-09-17T06:42:00;100954.74;;;17.90;30.56
67803;BME280;54601;51.378;-1.342;2022-09-17T06:44:25;100959.13;;;17.70;30.78
67803;BME280;54601;51.378;-1.342;2022-09-17T06:46:50;100962.98;;;17.98;30.50
67803;BME280;54601;51.378;-1.342;2022-09-17T06:49:15;100970.70;;;17.79;30.91
67803;BME280;54601;51.378;-1.342;2022-09-17T06:51:40;100976.60;;;18.67;30.29
67803;BME280;54601;51.378;-1.342;2022-09-17T06:54:06;100977.76;;;18.33;30.36
67803;BME280;54601;51.378;-1.342;2022-09-17T06:56:31;100975.73;;;18.30;30.21
67803;BME280;54601;51.378;-1.342;2022-09-17T06:58:56;100978.44;;;18.36;30.45
67803;BME280;54601;51.378;-1.342;2022-09-17T07:01:21;100979.82;;;18.06;30.52
67803;BME280;54601;51.378;-1.342;2022-09-17T07:03:46;100977.92;;;17.83;30.47
67803;BME280;54601;51.378;-1.342;2022-09-17T07:06:11;100979.15;;;17.94;30.67
67803;BME280;54601;51.378;-1.342;2022-09-17T07:08:37;100980.95;;;17.99;30.60
67803;BME280;54601;51.378;-1.342;2022-09-17T07:11:02;100980.74;;;18.44;30.39
67803;BME280;54601;51.378;-1.342;2022-09-17T07:13:27;100983.89;;;17.99;30.80
67803;BME280;54601;51.378;-1.342;2022-09-17T07:15:53;100982.07;;;18.19;30.72
67803;BME280;54601;51.378;-1.342;2022-09-17T07:18:17;100980.97;;;18.32;30.60
67803;BME280;54601;51.378;-1.342;2022-09-17T07:20:42;100977.94;;;18.23;30.49
67803;BME280;54601;51.378;-1.342;2022-09-17T07:23:07;100972.73;;;18.06;30.79
67803;BME280;54601;51.378;-1.342;2022-09-17T07:25:33;100974.76;;;17.86;31.00
67803;BME280;54601;51.378;-1.342;2022-09-17T07:27:58;100973.40;;;17.78;31.18
67803;BME280;54601;51.378;-1.342;2022-09-17T07:30:23;100976.58;;;17.76;31.23
67803;BME280;54601;51.378;-1.342;2022-09-17T07:32:48;100975.91;;;17.93;31.05
67803;BME280;54601;51.378;-1.342;2022-09-17T07:35:13;100977.45;;;17.97;31.02
67803;BME280;54601;51.378;-1.342;2022-09-17T07:37:38;100976.51;;;18.02;30.87
67803;BME280;54601;51.378;-1.342;2022-09-17T07:40:04;100975.97;;;18.33;30.33
67803;BME280;54601;51.378;-1.342;2022-09-17T07:42:28;100973.89;;;18.64;29.96
67803;BME280;54601;51.378;-1.342;2022-09-17T07:44:54;100972.82;;;18.65;30.06
67803;BME280;54601;51.378;-1.342;2022-09-17T07:47:19;100971.10;;;18.59;30.16
67803;BME280;54601;51.378;-1.342;2022-09-17T07:49:44;100968.87;;;18.50;30.11
67803;BME280;54601;51.378;-1.342;2022-09-17T07:52:09;100973.16;;;18.61;30.08
67803;BME280;54601;51.378;-1.342;2022-09-17T07:54:35;100969.99;;;18.71;30.00
67803;BME280;54601;51.378;-1.342;2022-09-17T07:56:59;100968.68;;;18.70;30.02
67803;BME280;54601;51.378;-1.342;2022-09-17T07:59:25;100968.38;;;17.57;29.93
67803;BME280;54601;51.378;-1.342;2022-09-17T08:01:49;100974.26;;;18.87;29.54
67803;BME280;54601;51.378;-1.342;2022-09-17T08:04:15;100977.40;;;18.80;29.98
67803;BME280;54601;51.378;-1.342;2022-09-17T08:06:40;100976.40;;;18.74;30.10
67803;BME280;54601;51.378;-1.342;2022-09-17T08:09:05;100976.47;;;18.49;30.14
67803;BME280;54601;51.378;-1.342;2022-09-17T08:11:30;100976.03;;;18.70;30.28
67803;BME280;54601;51.378;-1.342;2022-09-17T08:13:55;100978.74;;;18.74;30.33
67803;BME280;54601;51.378;-1.342;2022-09-17T08:16:21;100976.70;;;18.65;30.50
67803;BME280;54601;51.378;-1.342;2022-09-17T08:18:46;100977.34;;;18.54;30.42
67803;BME280;54601;51.378;-1.342;2022-09-17T08:21:12;100977.98;;;18.71;30.57
67803;BME280;54601;51.378;-1.342;2022-09-17T08:23:37;100983.06;;;18.77;30.55
67803;BME280;54601;51.378;-1.342;2022-09-17T08:26:01;100976.44;;;18.82;30.59
67803;BME280;54601;51.378;-1.342;2022-09-17T08:28:28;100981.52;;;18.43;30.59
67803;BME280;54601;51.378;-1.342;2022-09-17T08:30:52;100985.67;;;18.80;30.58
67803;BME280;54601;51.378;-1.342;2022-09-17T08:33:16;100988.32;;;18.86;30.62
67803;BME280;54601;51.378;-1.342;2022-09-17T08:35:41;100989.33;;;18.92;30.56
67803;BME280;54601;51.378;-1.342;2022-09-17T08:38:06;100991.43;;;18.99;30.63
67803;BME280;54601;51.378;-1.342;2022-09-17T08:40:32;100991.13;;;19.26;30.73
67803;BME280;54601;51.378;-1.342;2022-09-17T08:42:59;100993.57;;;18.91;30.91
67803;BME280;54601;51.378;-1.342;2022-09-17T08:45:21;100992.73;;;19.09;30.91
67803;BME280;54601;51.378;-1.342;2022-09-17T08:47:46;100995.71;;;19.38;31.03
67803;BME280;54601;51.378;-1.342;2022-09-17T08:50:14;100996.96;;;19.45;31.04
67803;BME280;54601;51.378;-1.342;2022-09-17T08:52:47;100998.25;;;19.76;31.01
67803;BME280;54601;51.378;-1.342;2022-09-17T08:55:06;100998.31;;;19.64;30.98
67803;BME280;54601;51.378;-1.342;2022-09-17T08:57:32;101003.01;;;19.46;30.97
67803;BME280;54601;51.378;-1.342;2022-09-17T08:59:58;101005.62;;;19.53;30.99
67803;BME280;54601;51.378;-1.342;2022-09-17T09:02:27;101003.46;;;19.58;31.03
67803;BME280;54601;51.378;-1.342;2022-09-17T09:07:09;101001.40;;;19.70;31.04
67803;BME280;54601;51.378;-1.342;2022-09-17T09:09:35;101002.55;;;19.69;31.07
67803;BME280;54601;51.378;-1.342;2022-09-17T09:12:03;101007.45;;;19.83;30.96
67803;BME280;54601;51.378;-1.342;2022-09-17T09:14:24;101006.78;;;19.98;30.89
67803;BME280;54601;51.378;-1.342;2022-09-17T09:16:49;101010.15;;;20.02;30.94
67803;BME280;54601;51.378;-1.342;2022-09-17T09:19:20;101011.49;;;20.09;30.96
67803;BME280;54601;51.378;-1.342;2022-09-17T09:21:46;101011.96;;;20.14;30.92
67803;BME280;54601;51.378;-1.342;2022-09-17T09:24:09;101007.75;;;20.25;30.86
67803;BME280;54601;51.378;-1.342;2022-09-17T09:26:40;101006.50;;;20.12;30.78
67803;BME280;54601;51.378;-1.342;2022-09-17T09:29:04;101008.79;;;20.20;30.76
67803;BME280;54601;51.378;-1.342;2022-09-17T09:31:36;101008.92;;;20.28;30.70
67803;BME280;54601;51.378;-1.342;2022-09-17T09:33:50;101007.55;;;20.36;30.63
67803;BME280;54601;51.378;-1.342;2022-09-17T09:36:16;101005.24;;;20.13;30.61
67803;BME280;54601;51.378;-1.342;2022-09-17T09:38:45;101003.62;;;20.24;30.54
67803;BME280;54601;51.378;-1.342;2022-09-17T09:41:10;100999.23;;;20.28;30.50
67803;BME280;54601;51.378;-1.342;2022-09-17T09:43:38;100996.66;;;20.36;30.43
67803;BME280;54601;51.378;-1.342;2022-09-17T09:46:12;100997.10;;;20.36;30.45
67803;BME280;54601;51.378;-1.342;2022-09-17T09:48:31;100993.66;;;20.69;30.48
67803;BME280;54601;51.378;-1.342;2022-09-17T09:51:01;100992.72;;;20.76;30.48
67803;BME280;54601;51.378;-1.342;2022-09-17T09:53:23;100988.56;;;20.52;30.36
67803;BME280;54601;51.378;-1.342;2022-09-17T09:55:58;100987.59;;;20.88;30.26
67803;BME280;54601;51.378;-1.342;2022-09-17T09:58:16;100989.63;;;20.65;30.32
67803;BME280;54601;51.378;-1.342;2022-09-17T10:00:36;100992.35;;;20.70;30.29
67803;BME280;54601;51.378;-1.342;2022-09-17T10:03:08;100995.81;;;20.67;30.31
67803;BME280;54601;51.378;-1.342;2022-09-17T10:05:26;100998.55;;;20.53;30.36
67803;BME280;54601;51.378;-1.342;2022-09-17T10:07:52;100995.77;;;20.77;30.38
67803;BME280;54601;51.378;-1.342;2022-09-17T10:10:18;100998.94;;;20.79;30.20
67803;BME280;54601;51.378;-1.342;2022-09-17T10:12:44;100999.68;;;20.81;30.20
67803;BME280;54601;51.378;-1.342;2022-09-17T10:17:36;101001.32;;;20.93;30.16
67803;BME280;54601;51.378;-1.342;2022-09-17T10:20:14;100997.86;;;20.73;30.10
67803;BME280;54601;51.378;-1.342;2022-09-17T10:22:30;100996.16;;;21.06;30.02
67803;BME280;54601;51.378;-1.342;2022-09-17T10:24:55;100992.97;;;21.06;30.03
67803;BME280;54601;51.378;-1.342;2022-09-17T10:27:22;100993.38;;;21.09;29.97
67803;BME280;54601;51.378;-1.342;2022-09-17T10:29:47;100988.54;;;21.13;29.87
67803;BME280;54601;51.378;-1.342;2022-09-17T10:32:15;100985.80;;;20.86;29.82
67803;BME280;54601;51.378;-1.342;2022-09-17T10:34:39;100987.85;;;21.11;29.96
67803;BME280;54601;51.378;-1.342;2022-09-17T10:37:04;100984.07;;;21.36;29.95
67803;BME280;54601;51.378;-1.342;2022-09-17T10:39:32;100981.22;;;20.87;30.04
67803;BME280;54601;51.378;-1.342;2022-09-17T10:41:56;100985.81;;;21.03;29.82
67803;BME280;54601;51.378;-1.342;2022-09-17T10:44:23;100981.80;;;21.00;29.92
67803;BME280;54601;51.378;-1.342;2022-09-17T10:46:47;100979.75;;;21.23;30.21
67803;BME280;54601;51.378;-1.342;2022-09-17T10:49:21;100984.06;;;21.12;29.97
67803;BME280;54601;51.378;-1.342;2022-09-17T10:51:39;100982.51;;;21.23;29.71
67803;BME280;54601;51.378;-1.342;2022-09-17T10:54:18;100977.63;;;21.39;29.91
67803;BME280;54601;51.378;-1.342;2022-09-17T10:56:33;100972.87;;;21.38;29.96
67803;BME280;54601;51.378;-1.342;2022-09-17T10:59:08;100971.59;;;21.23;29.82
67803;BME280;54601;51.378;-1.342;2022-09-17T11:01:32;100967.92;;;21.25;29.81
67803;BME280;54601;51.378;-1.342;2022-09-17T11:06:24;100970.17;;;21.02;29.93
67803;BME280;54601;51.378;-1.342;2022-09-17T11:08:49;100964.84;;;21.19;29.69
67803;BME280;54601;51.378;-1.342;2022-09-17T11:11:10;100960.15;;;21.26;29.60
67803;BME280;54601;51.378;-1.342;2022-09-17T11:13:36;100959.30;;;21.29;29.62
67803;BME280;54601;51.378;-1.342;2022-09-17T11:16:10;100961.36;;;21.36;29.53
67803;BME280;54601;51.378;-1.342;2022-09-17T11:23:28;100953.76;;;21.49;29.74
67803;BME280;54601;51.378;-1.342;2022-09-17T11:25:45;100950.50;;;21.68;29.84
67803;BME280;54601;51.378;-1.342;2022-09-17T11:28:17;100951.35;;;21.27;29.89
67803;BME280;54601;51.378;-1.342;2022-09-17T11:30:44;100944.27;;;21.32;29.83
67803;BME280;54601;51.378;-1.342;2022-09-17T11:35:28;100944.47;;;21.84;29.74
67803;BME280;54601;51.378;-1.342;2022-09-17T11:37:54;100944.70;;;21.33;29.85
67803;BME280;54601;51.378;-1.342;2022-09-17T11:40:22;100945.01;;;21.61;29.89
67803;BME280;54601;51.378;-1.342;2022-09-17T11:42:46;100939.37;;;21.81;29.93
67803;BME280;54601;51.378;-1.342;2022-09-17T11:45:13;100934.56;;;21.38;29.73
67803;BME280;54601;51.378;-1.342;2022-09-17T11:47:40;100927.94;;;21.42;29.83
67803;BME280;54601;51.378;-1.342;2022-09-17T11:50:06;100927.02;;;21.35;29.75
67803;BME280;54601;51.378;-1.342;2022-09-17T11:52:30;100927.54;;;21.41;29.94
67803;BME280;54601;51.378;-1.342;2022-09-17T11:54:57;100930.05;;;21.60;29.83
67803;BME280;54601;51.378;-1.342;2022-09-17T11:57:21;100933.26;;;21.46;29.62
67803;BME280;54601;51.378;-1.342;2022-09-17T11:59:48;100929.00;;;21.42;29.84
67803;BME280;54601;51.378;-1.342;2022-09-17T12:02:19;100932.26;;;21.63;29.82
67803;BME280;54601;51.378;-1.342;2022-09-17T12:04:41;100926.12;;;21.68;29.68
67803;BME280;54601;51.378;-1.342;2022-09-17T12:07:11;100923.89;;;21.88;29.97
67803;BME280;54601;51.378;-1.342;2022-09-17T12:09:31;100926.08;;;21.42;29.92
67803;BME280;54601;51.378;-1.342;2022-09-17T12:11:59;100923.92;;;21.38;29.92
67803;BME280;54601;51.378;-1.342;2022-09-17T12:14:23;100921.65;;;21.36;29.82
67803;BME280;54601;51.378;-1.342;2022-09-17T12:16:49;100912.01;;;21.54;29.79
67803;BME280;54601;51.378;-1.342;2022-09-17T12:19:16;100909.45;;;21.49;30.03
67803;BME280;54601;51.378;-1.342;2022-09-17T12:21:41;100917.40;;;21.34;30.01
67803;BME280;54601;51.378;-1.342;2022-09-17T12:24:10;100915.72;;;21.59;29.96
67803;BME280;54601;51.378;-1.342;2022-09-17T12:26:41;100918.39;;;21.31;29.95
67803;BME280;54601;51.378;-1.342;2022-09-17T12:29:00;100913.57;;;21.69;29.99
67803;BME280;54601;51.378;-1.342;2022-09-17T12:31:27;100916.53;;;21.41;29.89
67803;BME280;54601;51.378;-1.342;2022-09-17T12:33:52;100912.95;;;21.33;30.18
67803;BME280;54601;51.378;-1.342;2022-09-17T12:38:48;100909.78;;;21.37;30.18
67803;BME280;54601;51.378;-1.342;2022-09-17T12:41:12;100910.43;;;21.56;30.24
67803;BME280;54601;51.378;-1.342;2022-09-17T12:43:41;100905.15;;;21.33;30.32
67803;BME280;54601;51.378;-1.342;2022-09-17T12:46:08;100909.01;;;21.58;30.35
67803;BME280;54601;51.378;-1.342;2022-09-17T12:48:35;100905.50;;;21.36;30.36
67803;BME280;54601;51.378;-1.342;2022-09-17T12:50:58;100902.20;;;21.37;30.42